createdAt,value
2023-03-08T00:00:38.535Z,95303.81
2023-03-08T00:03:06.330Z,95301.09
2023-03-08T00:05:34.127Z,95304.75
2023-03-08T00:08:01.832Z,95309.69
2023-03-08T00:10:29.609Z,95301.41
2023-03-08T00:12:57.813Z,95311.22
2023-03-08T00:15:26.992Z,95317.50
2023-03-08T00:17:54.760Z,95314.88
2023-03-08T00:20:22.536Z,95304.06
2023-03-08T00:22:50.339Z,95311.88
2023-03-08T00:25:18.673Z,95322.03
2023-03-08T00:27:46.406Z,95314.13
2023-03-08T00:30:15.440Z,95318.16
2023-03-08T00:32:44.706Z,95297.84
2023-03-08T00:35:12.496Z,95309.06
2023-03-08T00:37:40.344Z,95307.09
2023-03-08T00:40:10.017Z,95303.75
2023-03-08T00:42:38.113Z,95292.81
2023-03-08T00:45:06.962Z,95283.00
2023-03-08T00:47:35.495Z,95271.56
2023-03-08T00:50:04.850Z,95275.66
2023-03-08T00:52:32.604Z,95273.00
2023-03-08T00:55:00.409Z,95270.00
2023-03-08T00:57:28.226Z,95261.31
2023-03-08T00:59:55.971Z,95252.25
2023-03-08T01:02:23.755Z,95250.38
2023-03-08T01:04:51.529Z,95244.66
2023-03-08T01:07:22.401Z,95232.53
2023-03-08T01:09:50.361Z,95243.00
2023-03-08T01:12:21.772Z,95232.31
2023-03-08T01:14:49.472Z,95219.28
2023-03-08T01:17:17.191Z,95216.31
2023-03-08T01:19:44.923Z,95211.03
2023-03-08T01:22:12.889Z,95201.66
2023-03-08T01:24:45.397Z,95206.97
2023-03-08T01:27:13.159Z,95187.06
2023-03-08T01:29:41.076Z,95178.06
2023-03-08T01:32:09.894Z,95176.56
2023-03-08T01:34:37.664Z,95165.50
2023-03-08T01:37:06.291Z,95168.63
2023-03-08T01:39:34.081Z,95165.50
2023-03-08T01:42:07.242Z,95165.63
2023-03-08T01:44:50.875Z,95167.13
2023-03-08T01:47:20.652Z,95166.66
2023-03-08T01:49:48.475Z,95158.81
2023-03-08T01:52:19.809Z,95152.84
2023-03-08T01:54:49.860Z,95144.69
2023-03-08T01:57:22.223Z,95138.00
2023-03-08T01:59:52.087Z,95133.97
2023-03-08T02:02:24.625Z,95146.03
2023-03-08T02:04:52.987Z,95141.19
2023-03-08T02:07:20.958Z,95147.75
2023-03-08T02:09:49.890Z,95145.56
2023-03-08T02:12:19.180Z,95144.19
2023-03-08T02:14:47.225Z,95135.22
2023-03-08T02:17:14.939Z,95129.69
2023-03-08T02:19:47.050Z,95126.81
2023-03-08T02:22:15.838Z,95127.72
2023-03-08T02:24:45.456Z,95116.66
2023-03-08T02:27:18.494Z,95109.41
2023-03-08T02:29:46.377Z,95116.00
2023-03-08T02:32:15.788Z,95117.78
2023-03-08T02:37:29.139Z,95105.25
2023-03-08T02:39:58.213Z,95103.41
2023-03-08T02:42:26.425Z,95097.41
2023-03-08T02:44:54.238Z,95086.22
2023-03-08T02:47:22.086Z,95078.78
2023-03-08T02:49:49.852Z,95079.81
2023-03-08T02:52:17.643Z,95076.03
2023-03-08T02:54:45.469Z,95065.31
2023-03-08T02:57:14.713Z,95062.00
2023-03-08T02:59:42.645Z,95056.00
2023-03-08T03:02:10.530Z,95045.72
2023-03-08T03:04:38.383Z,95050.63
2023-03-08T03:07:06.319Z,95048.41
2023-03-08T03:09:37.009Z,95030.59
2023-03-08T03:12:05.849Z,95041.00
2023-03-08T03:14:35.210Z,95034.94
2023-03-08T03:17:02.891Z,95033.00
2023-03-08T03:19:30.601Z,95038.28
2023-03-08T03:21:58.411Z,95045.38
2023-03-08T03:24:26.179Z,95037.34
2023-03-08T03:26:54.051Z,95028.81
2023-03-08T03:29:21.849Z,95030.94
2023-03-08T03:31:51.167Z,95033.66
2023-03-08T03:34:18.937Z,95020.78
2023-03-08T03:36:46.747Z,95018.25
2023-03-08T03:39:14.650Z,95016.31
2023-03-08T03:41:42.543Z,95008.84
2023-03-08T03:44:10.431Z,95012.31
2023-03-08T03:46:38.313Z,95015.53
2023-03-08T03:49:07.504Z,95013.09
2023-03-08T03:51:35.356Z,94989.00
2023-03-08T03:54:03.101Z,94991.16
2023-03-08T03:56:30.815Z,94989.09
2023-03-08T03:58:58.884Z,94980.69
2023-03-08T04:01:29.029Z,94994.91
2023-03-08T04:03:58.143Z,94971.53
2023-03-08T04:06:29.355Z,94966.06
2023-03-08T04:08:59.402Z,94973.13
2023-03-08T04:11:29.322Z,94977.75
2023-03-08T04:13:57.098Z,94965.84
2023-03-08T04:16:29.084Z,94968.97
2023-03-08T04:18:59.167Z,94961.47
2023-03-08T04:21:28.759Z,94965.94
2023-03-08T04:23:58.373Z,94959.44
2023-03-08T04:26:28.295Z,94958.16
2023-03-08T04:28:56.644Z,94951.81
2023-03-08T04:31:26.176Z,94946.97
2023-03-08T04:33:54.766Z,94949.44
2023-03-08T04:36:23.801Z,94942.41
2023-03-08T04:38:53.731Z,94952.38
2023-03-08T04:41:21.829Z,94931.84
2023-03-08T04:43:51.597Z,94939.97
2023-03-08T04:46:22.304Z,94936.16
2023-03-08T04:48:52.896Z,94938.06
2023-03-08T04:51:22.045Z,94933.09
2023-03-08T04:53:49.932Z,94924.38
2023-03-08T04:56:19.885Z,94935.63
2023-03-08T04:58:48.174Z,94936.78
2023-03-08T05:01:17.915Z,94941.50
2023-03-08T05:03:46.542Z,94938.16
2023-03-08T05:06:15.137Z,94931.00
2023-03-08T05:08:43.098Z,94904.50
2023-03-08T05:11:11.953Z,94929.13
2023-03-08T05:13:41.143Z,94921.06
2023-03-08T05:16:09.596Z,94919.31
2023-03-08T05:18:37.529Z,94919.97
2023-03-08T05:21:08.063Z,94901.94
2023-03-08T05:23:36.484Z,94908.72
2023-03-08T05:26:06.412Z,94891.03
2023-03-08T05:28:37.057Z,94900.03
2023-03-08T05:31:08.502Z,94895.84
2023-03-08T05:33:36.987Z,94890.78
2023-03-08T05:36:05.630Z,94897.94
2023-03-08T05:38:33.798Z,94890.47
2023-03-08T05:41:02.612Z,94901.53
2023-03-08T05:43:30.820Z,94898.34
2023-03-08T05:46:00.267Z,94889.03
2023-03-08T05:48:30.861Z,94874.09
2023-03-08T05:50:59.511Z,94875.75
2023-03-08T05:53:27.314Z,94870.47
2023-03-08T05:55:56.282Z,94872.44
2023-03-08T05:58:24.070Z,94864.81
2023-03-08T06:00:51.946Z,94866.72
2023-03-08T06:03:19.835Z,94859.59
2023-03-08T06:05:49.067Z,94867.53
2023-03-08T06:08:16.839Z,94876.91
2023-03-08T06:10:44.651Z,94870.34
2023-03-08T06:13:12.392Z,94876.03
2023-03-08T06:15:40.173Z,94858.16
2023-03-08T06:18:08.667Z,94849.63
2023-03-08T06:20:36.445Z,94840.63
2023-03-08T06:23:05.566Z,94832.94
2023-03-08T06:25:33.410Z,94835.81
2023-03-08T06:28:01.152Z,94826.91
2023-03-08T06:30:28.986Z,94820.31
2023-03-08T06:32:56.871Z,94819.13
2023-03-08T06:35:24.699Z,94818.25
2023-03-08T06:37:52.495Z,94823.84
2023-03-08T06:40:21.868Z,94843.78
2023-03-08T06:42:49.594Z,94840.25
2023-03-08T06:45:17.470Z,94830.03
2023-03-08T06:47:45.272Z,94851.00
2023-03-08T06:50:13.220Z,94842.97
2023-03-08T06:52:40.941Z,94828.44
2023-03-08T06:55:09.884Z,94830.25
2023-03-08T06:57:38.995Z,94841.25
2023-03-08T07:00:09.606Z,94834.91
2023-03-08T07:02:37.355Z,94829.72
2023-03-08T07:05:05.655Z,94822.06
2023-03-08T07:07:35.534Z,94813.28
2023-03-08T07:10:03.726Z,94817.78
2023-03-08T07:12:32.353Z,94821.84
2023-03-08T07:15:01.536Z,94823.41
2023-03-08T07:17:29.295Z,94807.22
2023-03-08T07:19:57.015Z,94788.56
2023-03-08T07:22:24.906Z,94800.56
2023-03-08T07:24:52.871Z,94800.19
2023-03-08T07:27:20.658Z,94806.41
2023-03-08T07:29:48.399Z,94806.63
2023-03-08T07:32:17.698Z,94801.09
2023-03-08T07:34:45.608Z,94810.16
2023-03-08T07:37:14.140Z,94798.91
2023-03-08T07:39:41.879Z,94800.22
2023-03-08T07:42:11.130Z,94825.94
2023-03-08T07:44:39.020Z,94828.22
2023-03-08T07:47:07.920Z,94828.47
2023-03-08T07:49:37.446Z,94844.31
2023-03-08T07:52:05.732Z,94841.66
2023-03-08T07:54:33.522Z,94837.63
2023-03-08T07:57:01.270Z,94836.44
2023-03-08T07:59:29.165Z,94830.06
2023-03-08T08:01:56.870Z,94832.69
2023-03-08T08:04:24.805Z,94832.41
2023-03-08T08:06:54.186Z,94832.50
2023-03-08T08:09:21.964Z,94828.00
2023-03-08T08:11:50.046Z,94816.41
2023-03-08T08:14:17.814Z,94826.75
2023-03-08T08:16:45.694Z,94817.78
2023-03-08T08:19:14.614Z,94801.41
2023-03-08T08:21:44.338Z,94799.66
2023-03-08T08:24:13.504Z,94789.25
2023-03-08T08:26:41.632Z,94799.41
2023-03-08T08:29:09.862Z,94777.25
2023-03-08T08:31:37.757Z,94781.06
2023-03-08T08:34:05.565Z,94774.38
2023-03-08T08:36:33.465Z,94772.75
2023-03-08T08:39:01.271Z,94786.34
2023-03-08T08:41:32.566Z,94774.06
2023-03-08T08:44:01.087Z,94760.31
2023-03-08T08:46:29.506Z,94768.22
2023-03-08T08:48:57.375Z,94781.94
2023-03-08T08:51:25.195Z,94799.25
2023-03-08T08:53:53.647Z,94799.66
2023-03-08T08:56:27.142Z,94778.69
2023-03-08T08:58:57.914Z,94773.09
2023-03-08T09:01:28.112Z,94781.78
2023-03-08T09:03:56.398Z,94775.66
2023-03-08T09:06:26.177Z,94784.66
2023-03-08T09:08:55.678Z,94787.16
2023-03-08T09:11:25.044Z,94788.19
2023-03-08T09:13:53.980Z,94792.69
2023-03-08T09:16:25.485Z,94783.81
2023-03-08T09:18:53.662Z,94775.00
2023-03-08T09:21:21.501Z,94772.84
2023-03-08T09:23:49.265Z,94790.25
2023-03-08T09:26:17.156Z,94782.97
2023-03-08T09:28:45.103Z,94784.13
2023-03-08T09:31:15.198Z,94782.97
2023-03-08T09:33:48.519Z,94778.03
2023-03-08T09:36:16.660Z,94799.44
2023-03-08T09:38:44.807Z,94793.50
2023-03-08T09:41:26.571Z,94782.78
2023-03-08T09:44:11.733Z,94797.59
2023-03-08T09:46:43.821Z,94774.28
2023-03-08T09:49:14.130Z,94791.38
2023-03-08T09:51:47.439Z,94797.22
2023-03-08T09:54:21.154Z,94808.03
2023-03-08T09:56:51.904Z,94812.91
2023-03-08T09:59:26.322Z,94801.81
2023-03-08T10:02:01.500Z,94796.19
2023-03-08T10:05:02.325Z,94800.84
2023-03-08T10:07:49.500Z,94792.41
2023-03-08T10:10:30.826Z,94774.34
2023-03-08T10:13:22.661Z,94792.94
2023-03-08T10:15:54.587Z,94795.28
2023-03-08T10:18:31.070Z,94803.06
2023-03-08T10:21:02.296Z,94805.63
2023-03-08T10:23:32.598Z,94814.66
2023-03-08T10:26:02.802Z,94819.19
2023-03-08T10:28:30.619Z,94817.13
2023-03-08T10:31:00.421Z,94815.06
2023-03-08T10:33:33.479Z,94815.44
2023-03-08T10:36:06.286Z,94809.53
2023-03-08T10:38:35.805Z,94808.81
2023-03-08T10:41:07.073Z,94819.44
2023-03-08T10:43:37.656Z,94810.47
2023-03-08T10:46:12.265Z,94818.81
2023-03-08T10:48:40.266Z,94806.00
2023-03-08T10:51:18.232Z,94800.19
2023-03-08T10:53:54.524Z,94809.63
2023-03-08T10:56:27.121Z,94803.34
2023-03-08T10:58:59.347Z,94806.56
2023-03-08T11:01:28.950Z,94808.25
2023-03-08T11:04:01.762Z,94782.19
2023-03-08T11:06:31.109Z,94789.63
2023-03-08T11:09:01.006Z,94783.53
2023-03-08T11:11:29.372Z,94797.72
2023-03-08T11:13:57.406Z,94797.75
2023-03-08T11:16:46.731Z,94786.06
2023-03-08T11:19:31.523Z,94791.91
2023-03-08T11:22:10.283Z,94798.28
2023-03-08T11:25:03.839Z,94811.53
2023-03-08T11:27:48.048Z,94799.31
2023-03-08T11:30:25.985Z,94798.78
2023-03-08T11:33:22.554Z,94802.81
2023-03-08T11:35:56.300Z,94775.06
2023-03-08T11:38:27.320Z,94799.09
2023-03-08T11:41:02.192Z,94794.06
2023-03-08T11:43:46.736Z,94801.81
2023-03-08T11:46:23.007Z,94813.03
2023-03-08T11:49:09.897Z,94818.38
2023-03-08T11:51:45.414Z,94812.78
2023-03-08T11:54:20.112Z,94797.59
2023-03-08T11:56:52.306Z,94798.13
2023-03-08T11:59:30.848Z,94791.19
2023-03-08T12:02:03.767Z,94786.91
2023-03-08T12:04:36.898Z,94785.31
2023-03-08T12:07:10.464Z,94794.63
2023-03-08T12:09:49.351Z,94793.53
2023-03-08T12:12:23.752Z,94813.28
2023-03-08T12:14:57.917Z,94814.88
2023-03-08T12:17:28.412Z,94797.94
2023-03-08T12:19:56.228Z,94817.00
2023-03-08T12:22:35.323Z,94820.16
2023-03-08T12:25:13.901Z,94803.03
2023-03-08T12:27:47.991Z,94806.22
2023-03-08T12:30:25.184Z,94806.97
2023-03-08T12:32:56.780Z,94809.72
2023-03-08T12:35:32.966Z,94792.25
2023-03-08T12:38:02.783Z,94791.31
2023-03-08T12:40:39.490Z,94808.91
2023-03-08T12:43:11.345Z,94801.00
2023-03-08T12:45:41.664Z,94809.91
2023-03-08T12:48:18.754Z,94801.72
2023-03-08T12:51:02.439Z,94795.84
2023-03-08T12:53:42.926Z,94794.50
2023-03-08T12:56:26.016Z,94788.28
2023-03-08T12:58:56.416Z,94790.59
2023-03-08T13:01:38.543Z,94768.63
2023-03-08T13:04:08.285Z,94784.09
2023-03-08T13:07:14.975Z,94778.88
2023-03-08T13:09:51.293Z,94767.00
2023-03-08T13:12:26.539Z,94746.13
2023-03-08T13:15:03.142Z,94753.38
2023-03-08T13:17:36.523Z,94767.81
2023-03-08T13:20:12.420Z,94747.28
2023-03-08T13:22:51.576Z,94757.50
2023-03-08T13:25:30.031Z,94763.97
2023-03-08T13:28:06.313Z,94750.16
2023-03-08T13:30:36.715Z,94753.56
2023-03-08T13:33:09.530Z,94760.88
2023-03-08T13:35:37.689Z,94762.00
2023-03-08T13:38:05.522Z,94761.00
2023-03-08T13:40:33.427Z,94737.97
2023-03-08T13:43:05.655Z,94744.13
2023-03-08T13:45:33.627Z,94750.56
2023-03-08T13:48:07.371Z,94759.00
2023-03-08T13:50:37.066Z,94754.78
2023-03-08T13:53:09.880Z,94736.47
2023-03-08T13:55:43.208Z,94747.88
2023-03-08T13:58:22.552Z,94731.25
2023-03-08T14:01:02.125Z,94737.44
2023-03-08T14:03:31.966Z,94726.00
2023-03-08T14:06:00.016Z,94719.28
2023-03-08T14:08:28.965Z,94724.41
2023-03-08T14:11:00.967Z,94698.31
2023-03-08T14:13:33.220Z,94699.84
2023-03-08T14:16:03.661Z,94701.13
2023-03-08T14:18:35.095Z,94691.84
2023-03-08T14:21:08.732Z,94684.25
2023-03-08T14:23:41.169Z,94692.28
2023-03-08T14:26:25.383Z,94693.50
2023-03-08T14:29:11.914Z,94702.50
2023-03-08T14:31:40.746Z,94689.53
2023-03-08T14:34:20.413Z,94689.84
2023-03-08T14:37:00.117Z,94668.56
2023-03-08T14:39:29.262Z,94670.94
2023-03-08T14:41:57.980Z,94666.13
2023-03-08T14:44:30.379Z,94665.03
2023-03-08T14:47:09.323Z,94673.75
2023-03-08T14:49:37.295Z,94662.50
2023-03-08T14:52:05.935Z,94673.06
2023-03-08T14:54:36.221Z,94679.06
2023-03-08T14:57:17.096Z,94693.94
2023-03-08T14:59:46.613Z,94687.00
2023-03-08T15:02:16.405Z,94688.25
2023-03-08T15:04:45.030Z,94694.38
2023-03-08T15:07:20.048Z,94698.28
2023-03-08T15:09:48.866Z,94692.38
2023-03-08T15:12:17.813Z,94655.38
2023-03-08T15:14:47.091Z,94658.75
2023-03-08T15:17:14.896Z,94661.50
2023-03-08T15:19:43.132Z,94654.13
2023-03-08T15:22:13.833Z,94663.25
2023-03-08T15:24:41.897Z,94651.56
2023-03-08T15:27:15.090Z,94628.09
2023-03-08T15:29:42.884Z,94645.19
2023-03-08T15:32:12.065Z,94652.66
2023-03-08T15:34:40.779Z,94640.69
2023-03-08T15:37:14.434Z,94639.38
2023-03-08T15:39:42.210Z,94617.47
2023-03-08T15:42:09.930Z,94615.38
2023-03-08T15:44:38.068Z,94622.06
2023-03-08T15:47:06.018Z,94626.84
2023-03-08T15:49:35.143Z,94630.31
2023-03-08T15:52:02.862Z,94637.81
2023-03-08T15:54:31.751Z,94638.66
2023-03-08T15:56:59.697Z,94636.50
2023-03-08T15:59:27.546Z,94625.31
2023-03-08T16:01:55.296Z,94639.44
2023-03-08T16:04:23.550Z,94639.44
2023-03-08T16:06:52.982Z,94663.19
2023-03-08T16:09:20.743Z,94652.22
2023-03-08T16:11:48.481Z,94635.72
2023-03-08T16:14:17.846Z,94640.53
2023-03-08T16:16:46.338Z,94650.91
2023-03-08T16:19:14.145Z,94652.50
2023-03-08T16:21:42.072Z,94672.50
2023-03-08T16:24:12.486Z,94667.16
2023-03-08T16:26:40.191Z,94680.47
2023-03-08T16:29:08.058Z,94673.78
2023-03-08T16:31:36.195Z,94683.38
2023-03-08T16:34:04.506Z,94676.72
2023-03-08T16:36:32.896Z,94674.63
2023-03-08T16:39:00.718Z,94688.97
2023-03-08T16:41:30.094Z,94677.78
2023-03-08T16:43:58.110Z,94678.34
2023-03-08T16:46:26.006Z,94685.28
2023-03-08T16:48:55.088Z,94679.94
2023-03-08T16:51:24.522Z,94673.53
2023-03-08T16:53:52.728Z,94671.69
2023-03-08T16:56:21.275Z,94660.22
2023-03-08T16:58:50.470Z,94653.03
2023-03-08T17:01:19.904Z,94652.53
2023-03-08T17:03:47.914Z,94659.69
2023-03-08T17:06:18.371Z,94655.44
2023-03-08T17:08:46.189Z,94647.44
2023-03-08T17:11:18.323Z,94646.38
2023-03-08T17:13:48.033Z,94633.59
2023-03-08T17:16:17.239Z,94658.09
2023-03-08T17:18:44.994Z,94630.91
2023-03-08T17:21:12.973Z,94642.38
2023-03-08T17:23:40.868Z,94650.91
2023-03-08T17:26:10.792Z,94643.97
2023-03-08T17:28:39.351Z,94640.78
2023-03-08T17:31:09.144Z,94645.31
2023-03-08T17:33:38.869Z,94640.25
2023-03-08T17:36:07.550Z,94650.63
2023-03-08T17:38:35.517Z,94646.09
2023-03-08T17:41:06.361Z,94651.97
2023-03-08T17:43:34.384Z,94651.69
2023-03-08T17:46:03.602Z,94646.63
2023-03-08T17:48:32.155Z,94667.41
2023-03-08T17:51:04.096Z,94676.75
2023-03-08T17:53:32.170Z,94685.00
2023-03-08T17:56:01.791Z,94698.03
2023-03-08T17:58:29.932Z,94688.19
2023-03-08T18:00:58.037Z,94698.59
2023-03-08T18:03:25.878Z,94674.31
2023-03-08T18:05:54.386Z,94684.47
2023-03-08T18:08:23.925Z,94695.66
2023-03-08T18:10:51.979Z,94691.69
2023-03-08T18:13:19.693Z,94704.22
2023-03-08T18:15:50.171Z,94687.94
2023-03-08T18:18:18.579Z,94682.88
2023-03-08T18:20:46.668Z,94694.06
2023-03-08T18:23:14.636Z,94678.31
2023-03-08T18:25:43.842Z,94696.69
2023-03-08T18:28:11.946Z,94689.53
2023-03-08T18:30:39.847Z,94706.31
2023-03-08T18:33:07.900Z,94695.91
2023-03-08T18:35:35.739Z,94679.16
2023-03-08T18:38:04.035Z,94681.25
2023-03-08T18:40:32.560Z,94675.13
2023-03-08T18:43:02.709Z,94674.88
2023-03-08T18:45:30.894Z,94678.31
2023-03-08T18:47:58.658Z,94676.22
2023-03-08T18:50:26.830Z,94675.13
2023-03-08T18:52:54.670Z,94689.50
2023-03-08T18:55:22.407Z,94687.91
2023-03-08T18:57:50.177Z,94693.72
2023-03-08T19:00:20.047Z,94698.53
2023-03-08T19:02:47.854Z,94701.72
2023-03-08T19:05:18.279Z,94687.06
2023-03-08T19:07:46.746Z,94696.41
2023-03-08T19:10:17.622Z,94706.03
2023-03-08T19:12:48.403Z,94692.16
2023-03-08T19:15:16.383Z,94681.00
2023-03-08T19:17:48.034Z,94682.63
2023-03-08T19:20:19.166Z,94680.25
2023-03-08T19:22:46.903Z,94687.97
2023-03-08T19:25:16.300Z,94686.09
2023-03-08T19:27:44.020Z,94702.66
2023-03-08T19:30:12.886Z,94702.38
2023-03-08T19:32:42.603Z,94701.06
2023-03-08T19:35:12.041Z,94702.38
2023-03-08T19:37:39.890Z,94698.38
2023-03-08T19:40:09.795Z,94697.56
2023-03-08T19:42:37.572Z,94694.38
2023-03-08T19:45:08.804Z,94690.34
2023-03-08T19:47:36.549Z,94688.75
2023-03-08T19:50:04.517Z,94699.69
2023-03-08T19:52:33.768Z,94695.44
2023-03-08T19:55:02.026Z,94711.44
2023-03-08T19:57:32.888Z,94691.16
2023-03-08T20:00:01.256Z,94700.75
2023-03-08T20:02:29.319Z,94699.16
2023-03-08T20:04:57.073Z,94692.75
2023-03-08T20:07:27.598Z,94699.91
2023-03-08T20:10:02.296Z,94692.19
2023-03-08T20:12:38.272Z,94687.41
2023-03-08T20:15:06.928Z,94692.44
2023-03-08T20:17:36.498Z,94685.78
2023-03-08T20:20:04.833Z,94686.56
2023-03-08T20:22:32.560Z,94687.88
2023-03-08T20:25:01.701Z,94674.00
2023-03-08T20:27:29.839Z,94688.97
2023-03-08T20:29:57.653Z,94689.50
2023-03-08T20:32:25.522Z,94693.72
2023-03-08T20:34:53.495Z,94699.59
2023-03-08T20:37:21.186Z,94685.72
2023-03-08T20:39:52.139Z,94689.22
2023-03-08T20:42:21.968Z,94701.75
2023-03-08T20:44:49.862Z,94702.31
2023-03-08T20:47:18.119Z,94694.59
2023-03-08T20:49:45.949Z,94690.31
2023-03-08T20:52:13.666Z,94700.72
2023-03-08T20:54:42.663Z,94697.25
2023-03-08T20:57:10.491Z,94688.41
2023-03-08T20:59:39.693Z,94683.91
2023-03-08T21:02:08.084Z,94676.69
2023-03-08T21:04:36.066Z,94675.09
2023-03-08T21:07:04.156Z,94674.81
2023-03-08T21:09:32.131Z,94676.13
2023-03-08T21:11:59.930Z,94671.56
2023-03-08T21:14:29.000Z,94669.72
2023-03-08T21:16:58.450Z,94665.94
2023-03-08T21:19:26.259Z,94671.84
2023-03-08T21:21:54.159Z,94654.25
2023-03-08T21:24:22.887Z,94672.38
2023-03-08T21:26:52.081Z,94659.81
2023-03-08T21:29:22.202Z,94659.53
2023-03-08T21:31:51.798Z,94673.94
2023-03-08T21:34:23.030Z,94665.69
2023-03-08T21:36:51.381Z,94688.59
2023-03-08T21:39:19.799Z,94688.88
2023-03-08T21:41:49.545Z,94696.88
2023-03-08T21:44:19.520Z,94693.00
2023-03-08T21:46:48.163Z,94686.84
2023-03-08T21:49:18.378Z,94693.00
2023-03-08T21:51:47.514Z,94676.19
2023-03-08T21:54:16.243Z,94687.69
2023-03-08T21:56:44.552Z,94683.69
2023-03-08T21:59:12.974Z,94682.63
2023-03-08T22:01:41.833Z,94684.44
2023-03-08T22:04:09.721Z,94670.59
2023-03-08T22:06:37.528Z,94666.78
2023-03-08T22:09:06.815Z,94644.06
2023-03-08T22:11:34.657Z,94660.66
2023-03-08T22:14:03.040Z,94665.25
2023-03-08T22:16:31.872Z,94653.25
2023-03-08T22:19:01.758Z,94664.16
2023-03-08T22:21:29.993Z,94660.41
2023-03-08T22:23:59.546Z,94656.13
2023-03-08T22:26:29.921Z,94663.31
2023-03-08T22:28:57.825Z,94664.16
2023-03-08T22:31:27.824Z,94662.53
2023-03-08T22:33:55.688Z,94654.81
2023-03-08T22:36:23.628Z,94684.22
2023-03-08T22:38:51.383Z,94675.06
2023-03-08T22:41:21.204Z,94653.41
2023-03-08T22:43:50.839Z,94664.09
2023-03-08T22:46:20.453Z,94639.00
2023-03-08T22:48:49.249Z,94641.75
2023-03-08T22:51:19.118Z,94654.47
2023-03-08T22:53:47.021Z,94662.75
2023-03-08T22:56:21.066Z,94657.91
2023-03-08T22:58:50.742Z,94630.31
2023-03-08T23:01:20.319Z,94629.91
2023-03-08T23:03:49.758Z,94663.59
2023-03-08T23:06:18.123Z,94654.06
2023-03-08T23:08:46.541Z,94665.38
2023-03-08T23:11:14.562Z,94643.41
2023-03-08T23:13:42.429Z,94642.56
2023-03-08T23:16:13.820Z,94620.09
2023-03-08T23:18:42.196Z,94622.59
2023-03-08T23:21:12.447Z,94607.06
2023-03-08T23:23:40.260Z,94601.00
2023-03-08T23:26:10.481Z,94584.72
2023-03-08T23:28:38.421Z,94578.53
2023-03-08T23:31:11.673Z,94588.88
2023-03-08T23:33:39.934Z,94600.69
2023-03-08T23:36:10.460Z,94567.03
2023-03-08T23:38:38.532Z,94553.00
2023-03-08T23:41:07.856Z,94613.94
2023-03-08T23:43:37.056Z,94629.16
2023-03-08T23:46:06.753Z,94617.78
2023-03-08T23:48:36.373Z,94617.75
2023-03-08T23:51:04.727Z,94628.81
2023-03-08T23:53:32.533Z,94626.69
2023-03-08T23:56:00.833Z,94640.41
2023-03-08T23:58:28.838Z,94626.28
